Página principal
METAR-TAF:

METAR-TAF

Aeroportos :

Tortola, Ilhas Virgens Britânicas

latitude: 18-27N, longitude: 064-32W, altura: 4 m

Observação actual do tempo

O boletim foi feito há 14 minutos, às 12:00 UTC
Vento 8 kt de es-nordeste
Temperatura 29°C
Humidade 79%
Pressão 1016 hPa
Visibilidade: 16.1 km
Poucas nuvensa uma altura de 1900 ft

METAR: TUPJ 191200Z 07008KT 10SM FEW019 29/25 A3001 RMK Q1016 VIS16KM

Hora: 08:14 (12:14 UTC)

Previsão

O boletim foi feito há 1 hora e 14 minutos, às 11:00 UTC
Previsão válida de 19 às 12 UTC a 20 às 12 UTC
Vento 11 kt de este
Visibilidade 10 km ou mais
Nuvens dispersasa uma altura de 1900 ft
Nuvens dispersasa uma altura de 3800 ft
Temporariamente
de 19 às 12 UTC a 19 às 18 UTC
aguaceiros de chuva
Probabilidade 40% :
Temporariamente
de 20 às 02 UTC a 20 às 12 UTC
Nuvens fragmentadasa uma altura de 1400 ft
aguaceiros de chuva

TAF: TUPJ 191100Z 1912/2012 09011KT 9999 SCT019 SCT038 TEMPO 1912/1918 SHRA PROB40 TEMPO 2002/2012 SHRA BKN014

Observações e previsões do tempo de mais de 4000 aeroportos (mensagens METAR e TAF).

As estações disponíveis são os pontos amarelos e vermelhos sobre o mapa.

Mova o rato sobre o mapa para ver o nome da estação.

Depois clique no ponto para visualizar as observações e previsões meteorológicas.

Para alterar o mapa : clique nos botões verdes com uma cruz preta para aumentar o zoom; no botão verde com uma pitada de zoom; ou nas setas verdes para mapas adjacentes.


METAR-TAF: